Time;durP1;ratioP1;P1;durP2;ratioP2;P2;SDS_P1;SDS_P2;PMS_P1;PMS_P2;Temp;Humidity;BMP_temperature;BMP_pressure;BME280_temperature;BME280_humidity;BME280_pressure;Samples;Min_cycle;Max_cycle;Signal;HPM_P1;HPM_P2
2023/07/13 15:18:29;;;;;;;6.47;1.90;;;22.60;97.30;;;;;;5080691;27;20462;-76
2023/07/13 15:20:55;;;;;;;2.25;1.20;;;22.40;97.20;;;;;;5053687;28;20041;-74
2023/07/13 15:23:25;;;;;;;3.08;1.50;;;22.10;97.30;;;;;;5096541;28;20056;-72
2023/07/13 15:25:52;;;;;;;4.47;1.75;;;22.00;98.10;;;;;;5089906;28;20474;-73
2023/07/13 15:28:17;;;;;;;5.93;1.92;;;22.10;98.00;;;;;;5034505;28;20122;-70
2023/07/13 15:30:47;;;;;;;3.83;1.58;;;22.20;98.20;;;;;;5057720;28;20064;-70
2023/07/13 15:33:16;;;;;;;4.57;1.77;;;22.30;97.40;;;;;;5033979;28;20130;-70
2023/07/13 15:35:43;;;;;;;4.93;1.70;;;22.50;97.50;;;;;;5045814;28;20071;-71
2023/07/13 15:38:24;;;;;;;5.25;1.80;;;22.50;97.10;;;;;;5094027;28;20044;-70
2023/07/13 15:40:50;;;;;;;2.50;1.70;;;22.60;96.10;;;;;;5044869;28;20037;-70
2023/07/13 15:43:17;;;;;;;3.53;1.75;;;22.60;97.00;;;;;;5054601;28;20041;-70
2023/07/13 15:45:45;;;;;;;4.80;1.92;;;22.70;96.30;;;;;;5045545;28;20113;-70
2023/07/13 15:48:22;;;;;;;4.32;1.85;;;22.70;96.60;;;;;;5054962;28;20041;-70
2023/07/13 15:50:50;;;;;;;4.35;1.55;;;22.80;96.60;;;;;;5060448;28;20044;-69
2023/07/13 15:53:25;;;;;;;3.25;2.10;;;22.80;95.20;;;;;;5055950;28;20037;-72
2023/07/13 15:55:52;;;;;;;4.15;1.92;;;22.90;96.00;;;;;;5059315;28;20037;-72
2023/07/13 15:58:18;;;;;;;5.25;1.90;;;23.00;95.50;;;;;;5035729;28;20044;-70
2023/07/13 16:00:44;;;;;;;3.85;1.80;;;23.00;95.60;;;;;;5061557;28;20028;-70
2023/07/13 16:03:11;;;;;;;2.60;1.30;;;22.80;95.10;;;;;;5014420;28;20037;-70
2023/07/13 16:05:37;;;;;;;5.10;1.95;;;22.50;94.80;;;;;;5037383;28;20041;-70
2023/07/13 16:08:06;;;;;;;3.33;1.77;;;22.40;95.10;;;;;;5054936;28;20079;-70
2023/07/13 16:10:40;;;;;;;3.95;1.52;;;22.60;96.10;;;;;;5059257;28;20066;-70
2023/07/13 16:13:25;;;;;;;3.20;2.10;;;22.80;96.30;;;;;;5036007;28;20129;-70
2023/07/13 16:15:51;;;;;;;3.42;2.38;;;22.90;94.90;;;;;;5045009;28;20046;-70
2023/07/13 16:18:18;;;;;;;1.98;1.55;;;23.00;94.70;;;;;;5064613;28;20052;-76
2023/07/13 16:20:46;;;;;;;1.75;1.55;;;23.00;94.30;;;;;;5035603;28;20099;-69
2023/07/13 16:23:13;;;;;;;3.03;1.75;;;23.00;93.00;;;;;;5036789;28;20072;-70
2023/07/13 16:25:40;;;;;;;3.45;1.40;;;23.00;92.90;;;;;;5029690;28;20044;-70
2023/07/13 16:28:06;;;;;;;3.63;1.85;;;22.90;93.60;;;;;;5059427;28;20041;-70
2023/07/13 16:30:33;;;;;;;6.47;2.50;;;22.80;94.00;;;;;;5077768;28;20049;-70
2023/07/13 16:33:08;;;;;;;5.35;2.10;;;22.80;93.70;;;;;;5078017;28;20045;-68
2023/07/13 16:35:42;;;;;;;3.35;1.73;;;22.70;93.00;;;;;;5046212;28;20437;-69
2023/07/13 16:38:22;;;;;;;2.03;1.50;;;22.60;93.10;;;;;;5023799;28;20049;-70
2023/07/13 16:40:48;;;;;;;2.88;1.80;;;22.70;92.90;;;;;;5022288;28;20083;-70
2023/07/13 16:43:21;;;;;;;2.92;1.80;;;22.70;92.10;;;;;;5079294;28;20408;-69
2023/07/13 16:45:50;;;;;;;2.67;1.77;;;22.60;90.10;;;;;;5081115;28;20139;-69
2023/07/13 16:48:18;;;;;;;5.93;2.05;;;22.50;92.50;;;;;;5029278;28;20080;-70
2023/07/13 16:50:49;;;;;;;4.88;2.03;;;22.60;93.20;;;;;;5080518;28;20029;-70
2023/07/13 16:53:23;;;;;;;5.65;2.20;;;22.40;93.40;;;;;;5041455;28;20127;-69
2023/07/13 16:55:55;;;;;;;2.17;1.77;;;22.30;93.70;;;;;;5031265;28;20410;-69
2023/07/13 16:58:25;;;;;;;;;;;22.40;94.00;;;;;;5044068;28;20608;-71
2023/07/13 17:00:51;;;;;;;2.20;1.60;;;22.30;93.00;;;;;;5033269;28;19917;-70
2023/07/13 17:03:18;;;;;;;5.38;1.50;;;22.40;94.10;;;;;;5033629;28;20056;-69
2023/07/13 17:05:45;;;;;;;4.32;1.77;;;22.60;93.60;;;;;;5033569;28;20049;-69
2023/07/13 17:08:25;;;;;;;2.28;1.73;;;22.70;93.30;;;;;;5035873;28;20072;-70
2023/07/13 17:10:57;;;;;;;4.88;2.10;;;22.90;94.30;;;;;;5079625;28;20057;-70
2023/07/13 17:13:24;;;;;;;8.05;2.42;;;22.90;93.80;;;;;;5044385;28;20083;-70
2023/07/13 17:15:55;;;;;;;3.25;2.08;;;22.70;94.00;;;;;;5042709;28;20591;-69
2023/07/13 17:18:26;;;;;;;4.05;1.67;;;22.40;92.80;;;;;;5060029;28;20053;-70
2023/07/13 17:20:53;;;;;;;3.45;1.95;;;22.00;93.30;;;;;;5036354;28;20045;-70
2023/07/13 17:23:21;;;;;;;2.47;1.50;;;21.70;93.70;;;;;;5080028;28;20482;-70
2023/07/13 17:25:48;;;;;;;2.67;1.63;;;21.40;94.10;;;;;;5059772;28;20557;-69
2023/07/13 17:28:15;;;;;;;4.15;2.20;;;21.20;94.40;;;;;;5043286;28;20113;-68
2023/07/13 17:30:43;;;;;;;4.80;1.95;;;21.30;95.10;;;;;;5075352;28;20724;-68
2023/07/13 17:33:20;;;;;;;3.65;1.88;;;21.40;95.50;;;;;;5037543;28;20036;-70
2023/07/13 17:35:45;;;;;;;2.60;1.80;;;21.50;95.80;;;;;;5038202;28;20045;-69
2023/07/13 17:38:11;;;;;;;3.35;1.98;;;21.50;95.00;;;;;;5023436;28;20033;-69
2023/07/13 17:40:38;;;;;;;4.18;1.67;;;21.30;95.30;;;;;;5074480;28;20122;-70
2023/07/13 17:43:05;;;;;;;4.07;2.28;;;21.20;95.70;;;;;;5079146;28;20730;-76
2023/07/13 17:45:32;;;;;;;3.97;2.20;;;21.00;95.90;;;;;;5040932;28;20044;-78
2023/07/13 17:48:01;;;;;;;4.53;1.80;;;20.90;96.50;;;;;;5048350;28;20079;-76
2023/07/13 17:50:44;;;;;;;4.07;1.90;;;20.80;97.00;;;;;;5047131;28;20131;-78
2023/07/13 17:53:20;;;;;;;3.83;2.10;;;20.70;97.50;;;;;;5036710;28;20040;-77
2023/07/13 17:55:48;;;;;;;7.75;2.72;;;20.80;97.90;;;;;;5040820;28;20067;-77
2023/07/13 17:58:15;;;;;;;3.33;2.30;;;20.70;97.70;;;;;;5038715;28;20567;-76
2023/07/13 18:00:43;;;;;;;4.15;2.40;;;20.80;98.00;;;;;;5014111;28;20072;-77
2023/07/13 18:03:20;;;;;;;5.03;2.25;;;20.90;98.30;;;;;;5026399;28;20071;-77
2023/07/13 18:05:47;;;;;;;5.22;2.40;;;21.00;98.40;;;;;;5060676;28;20041;-78
2023/07/13 18:08:32;;;;;;;4.70;2.10;;;21.10;98.70;;;;;;5074293;28;20632;-77
2023/07/13 18:11:00;;;;;;;5.00;2.10;;;21.20;99.00;;;;;;5044360;28;20398;-77
2023/07/13 18:13:28;;;;;;;3.00;2.65;;;21.20;98.80;;;;;;5073554;28;20034;-77
2023/07/13 18:15:56;;;;;;;2.75;1.88;;;21.30;99.00;;;;;;5045263;28;20045;-77
2023/07/13 18:18:22;;;;;;;4.82;2.10;;;21.30;99.10;;;;;;5039833;28;20060;-77
2023/07/13 18:20:48;;;;;;;6.70;2.40;;;21.30;98.90;;;;;;5046661;28;20033;-77
2023/07/13 18:23:17;;;;;;;3.95;2.20;;;21.20;99.20;;;;;;5013839;28;20061;-78
2023/07/13 18:25:45;;;;;;;7.80;2.97;;;21.00;99.40;;;;;;5018167;28;20498;-78
2023/07/13 18:28:13;;;;;;;4.05;2.72;;;20.80;99.70;;;;;;5079815;28;20041;-77
2023/07/13 18:30:39;;;;;;;5.10;2.80;;;20.70;99.90;;;;;;5042657;28;20391;-77
2023/07/13 18:33:23;;;;;;;6.70;2.25;;;20.60;99.90;;;;;;5049464;28;20065;-77
2023/07/13 18:35:51;;;;;;;7.40;2.33;;;20.40;99.90;;;;;;5018917;28;20465;-77
2023/07/13 18:38:24;;;;;;;7.45;2.45;;;20.30;99.90;;;;;;5048087;28;20083;-77
2023/07/13 18:40:51;;;;;;;3.90;2.35;;;20.20;99.90;;;;;;5032549;28;20559;-78
2023/07/13 18:43:17;;;;;;;6.97;2.60;;;20.10;99.90;;;;;;5088851;28;20687;-77
2023/07/13 18:45:43;;;;;;;4.18;2.17;;;20.10;99.90;;;;;;5053076;28;20394;-77
2023/07/13 18:48:20;;;;;;;6.35;2.53;;;19.90;99.90;;;;;;5052800;28;20493;-77
2023/07/13 18:50:46;;;;;;;5.43;2.42;;;19.90;99.90;;;;;;5052568;28;20085;-77
2023/07/13 18:53:15;;;;;;;5.10;2.53;;;19.70;99.90;;;;;;5035739;28;20041;-78
2023/07/13 18:55:41;;;;;;;4.88;2.40;;;19.70;99.90;;;;;;5047918;28;20033;-78
2023/07/13 18:58:07;;;;;;;6.20;2.47;;;19.60;99.90;;;;;;5014439;28;20034;-78
2023/07/13 19:00:33;;;;;;;5.80;2.10;;;19.60;99.90;;;;;;4997751;28;20045;-78
2023/07/13 19:02:59;;;;;;;4.53;2.50;;;19.50;99.90;;;;;;5077788;28;20029;-78
2023/07/13 19:05:27;;;;;;;4.20;2.10;;;19.40;99.90;;;;;;5022830;28;20036;-77
2023/07/13 19:07:54;;;;;;;5.45;2.42;;;19.40;99.90;;;;;;5074221;28;20044;-78
2023/07/13 19:10:23;;;;;;;4.53;2.70;;;19.30;99.90;;;;;;5046475;28;20048;-77
2023/07/13 19:12:52;;;;;;;3.63;2.33;;;19.30;99.90;;;;;;5067567;28;20048;-77
2023/07/13 19:15:33;;;;;;;6.80;2.55;;;19.20;99.90;;;;;;5033667;28;20041;-78
2023/07/13 19:18:01;;;;;;;4.68;2.17;;;19.20;99.90;;;;;;5043779;28;20078;-77
2023/07/13 19:20:28;;;;;;;5.10;2.42;;;19.10;99.90;;;;;;5059125;28;20439;-77
2023/07/13 19:23:02;;;;;;;5.22;2.63;;;19.00;99.90;;;;;;5027418;28;20083;-78
2023/07/13 19:25:29;;;;;;;7.13;2.75;;;19.00;99.90;;;;;;5015371;28;20703;-78
2023/07/13 19:28:00;;;;;;;10.55;2.78;;;18.90;99.90;;;;;;5053498;28;20042;-78
2023/07/13 19:30:26;;;;;;;5.30;2.42;;;18.80;99.90;;;;;;5018841;28;20045;-77
2023/07/13 19:32:52;;;;;;;7.78;2.92;;;18.80;99.90;;;;;;5011240;28;20521;-78
2023/07/13 19:35:18;;;;;;;4.55;2.83;;;18.70;99.90;;;;;;5018070;28;20171;-78
2023/07/13 19:37:44;;;;;;;6.55;2.80;;;18.60;99.90;;;;;;5010615;28;20040;-77
2023/07/13 19:40:22;;;;;;;5.47;3.03;;;18.60;99.90;;;;;;5059161;28;20048;-77
2023/07/13 19:42:49;;;;;;;5.60;2.85;;;18.50;99.90;;;;;;5068613;28;20139;-77
2023/07/13 19:45:21;;;;;;;6.03;3.15;;;18.40;99.90;;;;;;5018666;28;20525;-78
2023/07/13 19:47:49;;;;;;;4.97;3.10;;;18.30;99.90;;;;;;5021299;28;20037;-78
2023/07/13 19:50:19;;;;;;;6.03;3.00;;;18.30;99.90;;;;;;5017026;28;20045;-78
2023/07/13 19:52:55;;;;;;;4.82;3.03;;;18.20;99.90;;;;;;5078016;28;20115;-78
2023/07/13 19:55:22;;;;;;;6.97;2.95;;;18.20;99.90;;;;;;5058945;28;20145;-78
2023/07/13 19:57:49;;;;;;;4.28;2.80;;;18.10;99.90;;;;;;5007682;28;20033;-79
2023/07/13 20:00:18;;;;;;;7.35;3.25;;;18.00;99.90;;;;;;5018197;28;20038;-79
2023/07/13 20:02:47;;;;;;;5.85;2.75;;;18.00;99.90;;;;;;5019461;28;20038;-80
2023/07/13 20:05:16;;;;;;;6.35;3.38;;;17.90;99.90;;;;;;5058066;28;20126;-80
2023/07/13 20:07:43;;;;;;;4.85;2.80;;;17.90;99.90;;;;;;5007312;28;20053;-79
2023/07/13 20:10:16;;;;;;;6.75;3.20;;;17.80;99.90;;;;;;5055096;28;20464;-79
2023/07/13 20:12:41;;;;;;;;;;;17.70;99.90;;;;;;5048111;28;20382;-78
2023/07/13 20:15:14;;;;;;;10.40;3.47;;;17.70;99.90;;;;;;5007232;28;19917;-79
2023/07/13 20:17:41;;;;;;;7.57;3.55;;;17.70;99.90;;;;;;5074975;28;20194;-79
2023/07/13 20:20:22;;;;;;;6.72;2.97;;;17.60;99.90;;;;;;5014232;28;20041;-79
2023/07/13 20:22:49;;;;;;;5.25;3.38;;;17.60;99.90;;;;;;5079353;28;20045;-79
2023/07/13 20:25:25;;;;;;;5.85;3.40;;;17.50;99.90;;;;;;5026239;28;20056;-79
2023/07/13 20:27:56;;;;;;;7.15;3.25;;;17.50;99.90;;;;;;5077224;28;20516;-79
2023/07/13 20:30:24;;;;;;;4.28;3.30;;;17.50;99.90;;;;;;5027675;28;20041;-79
2023/07/13 20:32:50;;;;;;;4.35;3.10;;;17.40;99.90;;;;;;5025709;28;20033;-79
2023/07/13 20:35:32;;;;;;;5.82;2.85;;;17.40;99.90;;;;;;5042454;28;20159;-79
2023/07/13 20:37:59;;;;;;;4.82;3.40;;;17.30;99.90;;;;;;5038531;28;20099;-79
2023/07/13 20:40:33;;;;;;;4.60;3.17;;;17.30;99.90;;;;;;5076687;28;20037;-79
2023/07/13 20:42:59;;;;;;;6.65;3.70;;;17.20;99.90;;;;;;5029827;28;20090;-79
2023/07/13 20:45:27;;;;;;;4.80;3.60;;;17.20;99.90;;;;;;5025990;28;20052;-79
2023/07/13 20:47:55;;;;;;;5.85;3.60;;;17.10;99.90;;;;;;5023429;28;20047;-79
2023/07/13 20:50:25;;;;;;;5.93;3.92;;;17.00;99.90;;;;;;5075031;28;20172;-79
2023/07/13 20:52:57;;;;;;;6.60;3.88;;;17.00;99.90;;;;;;5023995;28;20483;-79
2023/07/13 20:55:24;;;;;;;;;;;16.90;99.90;;;;;;5073265;28;20267;-79
2023/07/13 20:57:51;;;;;;;6.82;3.90;;;16.90;99.90;;;;;;5057574;28;19921;-80
2023/07/13 21:00:20;;;;;;;5.03;3.47;;;16.90;99.90;;;;;;5047789;28;20127;-79
2023/07/13 21:02:48;;;;;;;7.47;4.03;;;16.80;99.90;;;;;;5036712;28;20139;-79
2023/07/13 21:05:17;;;;;;;5.32;3.97;;;16.80;99.90;;;;;;5036761;28;20548;-80
2023/07/13 21:07:44;;;;;;;7.30;4.30;;;16.70;99.90;;;;;;5029593;28;20129;-80
2023/07/13 21:10:36;;;;;;;8.73;5.25;;;16.70;99.90;;;;;;5039664;28;20044;-80
2023/07/13 21:13:01;;;;;;;5.67;3.90;;;16.70;99.90;;;;;;5005510;28;21108;-80
2023/07/13 21:15:31;;;;;;;6.32;4.25;;;16.60;99.90;;;;;;5037874;28;20324;-80
2023/07/13 21:17:59;;;;;;;7.82;4.50;;;16.60;99.90;;;;;;5035989;28;20053;-80
2023/07/13 21:20:37;;;;;;;8.35;4.15;;;16.60;99.90;;;;;;5033255;28;20091;-81
2023/07/13 21:23:11;;;;;;;6.97;4.13;;;16.50;99.90;;;;;;5073788;28;20237;-80
2023/07/13 21:25:37;;;;;;;5.05;3.83;;;16.40;99.90;;;;;;5010149;28;20033;-82
2023/07/13 21:28:03;;;;;;;6.78;4.35;;;16.40;99.90;;;;;;5029045;28;20076;-80
2023/07/13 21:30:41;;;;;;;9.27;5.13;;;16.30;99.90;;;;;;5027999;28;20039;-81
2023/07/13 21:33:14;;;;;;;11.68;5.20;;;16.30;99.90;;;;;;5046871;28;20120;-81
2023/07/13 21:35:42;;;;;;;8.90;5.13;;;16.30;99.90;;;;;;5021130;28;20044;-81
2023/07/13 21:38:23;;;;;;;5.25;4.15;;;16.30;99.90;;;;;;5010695;28;20108;-81
2023/07/13 21:40:52;;;;;;;6.88;4.80;;;16.20;99.90;;;;;;5018486;28;20037;-82
2023/07/13 21:43:17;;;;;;;6.80;4.50;;;16.20;99.90;;;;;;5042206;28;20036;-82
2023/07/13 21:45:44;;;;;;;7.20;4.70;;;16.10;99.90;;;;;;5051156;28;20407;-81
2023/07/13 21:48:10;;;;;;;6.82;4.70;;;16.10;99.90;;;;;;5075108;28;20040;-81
2023/07/13 21:50:42;;;;;;;7.60;4.43;;;16.10;99.90;;;;;;5030491;28;20488;-81
2023/07/13 21:53:16;;;;;;;5.93;4.50;;;16.00;99.90;;;;;;5043305;28;20529;-81
2023/07/13 21:55:42;;;;;;;5.90;4.90;;;16.00;99.90;;;;;;5020460;28;20037;-81
2023/07/13 21:58:14;;;;;;;6.85;4.70;;;15.90;99.90;;;;;;5012267;28;20041;-82
2023/07/13 22:00:40;;;;;;;5.78;4.35;;;15.90;99.90;;;;;;5036433;28;20094;-81
2023/07/13 22:03:19;;;;;;;6.97;5.07;;;15.90;99.90;;;;;;5032844;28;20037;-81
2023/07/13 22:05:45;;;;;;;9.65;5.60;;;15.80;99.90;;;;;;5022311;28;20032;-81
2023/07/13 22:08:11;;;;;;;13.80;5.15;;;15.80;99.90;;;;;;5034532;28;20717;-81
2023/07/13 22:10:38;;;;;;;10.38;5.47;;;15.70;99.90;;;;;;5028241;28;20123;-81
2023/07/13 22:13:04;;;;;;;6.93;5.28;;;15.70;99.90;;;;;;5072591;28;20063;-81
2023/07/13 22:15:30;;;;;;;7.70;5.30;;;15.70;99.90;;;;;;5040456;28;20055;-81
2023/07/13 22:17:56;;;;;;;9.70;5.20;;;15.70;99.90;;;;;;5075164;28;20057;-81
2023/07/13 22:20:23;;;;;;;7.38;5.10;;;15.60;99.90;;;;;;5021947;28;20067;-81
2023/07/13 22:22:50;;;;;;;7.53;5.40;;;15.60;99.90;;;;;;5024477;28;20037;-81
2023/07/13 22:25:16;;;;;;;5.53;4.95;;;15.50;99.90;;;;;;5003187;28;20061;-81
2023/07/13 22:27:47;;;;;;;6.47;4.63;;;15.40;99.90;;;;;;5025105;28;20236;-81
2023/07/13 22:30:15;;;;;;;7.03;4.65;;;15.30;99.90;;;;;;5024135;28;20524;-81
2023/07/13 22:32:42;;;;;;;6.18;5.18;;;15.30;99.90;;;;;;5042773;28;20048;-81
2023/07/13 22:35:15;;;;;;;10.80;5.05;;;15.20;99.90;;;;;;5021390;28;20108;-81
2023/07/13 22:37:41;;;;;;;8.68;5.28;;;15.20;99.90;;;;;;5022919;28;20040;-81
2023/07/13 22:40:16;;;;;;;8.52;5.03;;;15.10;99.90;;;;;;5019856;28;20048;-80
2023/07/13 22:42:41;;;;;;;5.82;5.22;;;15.10;99.90;;;;;;5061520;28;20039;-81
2023/07/13 22:45:10;;;;;;;6.85;4.82;;;15.00;99.90;;;;;;5035454;28;20116;-81
2023/07/13 22:47:38;;;;;;;5.57;4.82;;;15.00;99.90;;;;;;5060575;28;20432;-81
2023/07/13 22:50:16;;;;;;;7.65;5.57;;;15.00;99.90;;;;;;5044324;28;20044;-81
2023/07/13 22:52:42;;;;;;;7.30;5.28;;;15.00;99.90;;;;;;5041890;28;20052;-81
2023/07/13 22:55:15;;;;;;;8.48;5.32;;;15.00;99.90;;;;;;5021572;28;20041;-81
2023/07/13 22:57:48;;;;;;;9.55;5.38;;;15.00;99.90;;;;;;5020626;28;20744;-81
2023/07/13 23:00:18;;;;;;;8.90;5.90;;;15.00;99.90;;;;;;5023636;28;20041;-81
2023/07/13 23:02:44;;;;;;;10.82;5.75;;;14.90;99.90;;;;;;5026676;28;20494;-80
2023/07/13 23:05:17;;;;;;;7.95;5.95;;;14.90;99.90;;;;;;5013750;28;20043;-80
2023/07/13 23:07:43;;;;;;;10.65;6.20;;;14.80;99.90;;;;;;5024654;28;20048;-80
2023/07/13 23:10:19;;;;;;;8.02;5.43;;;14.80;99.90;;;;;;5044916;28;20129;-80
2023/07/13 23:12:46;;;;;;;8.85;5.45;;;14.80;99.90;;;;;;5031057;28;20124;-80
2023/07/13 23:15:18;;;;;;;9.50;5.80;;;14.70;99.90;;;;;;5028204;28;20406;-80
2023/07/13 23:17:48;;;;;;;11.07;5.35;;;14.70;99.90;;;;;;5034303;28;20056;-80
2023/07/13 23:20:28;;;;;;;5.78;4.90;;;14.60;99.90;;;;;;5007543;28;20059;-80
2023/07/13 23:22:55;;;;;;;9.27;5.75;;;14.60;99.90;;;;;;5033128;28;20080;-81
2023/07/13 23:25:23;;;;;;;6.38;5.65;;;14.50;99.90;;;;;;5057058;28;20045;-81
2023/07/13 23:27:49;;;;;;;9.70;5.45;;;14.50;99.90;;;;;;5026441;28;20037;-81
2023/07/13 23:30:18;;;;;;;7.78;5.20;;;14.50;99.90;;;;;;5024672;28;20546;-81
2023/07/13 23:32:44;;;;;;;9.88;6.43;;;14.40;99.90;;;;;;5072369;28;20402;-81
2023/07/13 23:35:15;;;;;;;8.30;6.47;;;14.40;99.90;;;;;;5015597;28;20041;-81
2023/07/13 23:37:42;;;;;;;8.77;6.10;;;14.40;99.90;;;;;;5025609;28;20406;-82
2023/07/13 23:40:17;;;;;;;8.20;5.80;;;14.40;99.90;;;;;;5028285;28;20065;-80
2023/07/13 23:42:43;;;;;;;9.82;6.57;;;14.30;99.90;;;;;;5029801;28;20397;-80
2023/07/13 23:45:18;;;;;;;10.02;6.53;;;14.30;99.90;;;;;;5032317;28;20060;-80
2023/07/13 23:47:46;;;;;;;8.45;6.15;;;14.30;99.90;;;;;;5022492;28;20044;-80
2023/07/13 23:50:20;;;;;;;8.95;6.60;;;14.20;99.90;;;;;;5070635;28;21184;-81
2023/07/13 23:52:47;;;;;;;11.05;6.80;;;14.20;99.90;;;;;;5047676;28;20090;-81
2023/07/13 23:55:14;;;;;;;10.65;7.78;;;14.20;99.90;;;;;;5027902;28;20048;-80
2023/07/13 23:57:40;;;;;;;8.15;6.50;;;14.20;99.90;;;;;;5048701;28;20048;-80
